Oklahoma City, OK (73126)

7:00 PM CDT on June 02, 2015 (GMT -0500)
Downtown | | Change Station
CLOSE
Current Station
Personal Weather Station
Location: Oklahoma City, OK
Elevation: 1220 ft
Nearby Weather Stations

Elev 1220 ft 35.46 °N, 97.51 °W | Updated 11 seconds ago

Partly Cloudy
Partly Cloudy
84.4 °F
Feels Like 87 °F
N
11.0
Wind Variable Wind from ENE
Gusts 22.0 mph

Today
High -- | Low -- °F
--% Chance of Precip.
Yesterday
High -- | Low -- °F
Precip. -- in
6:15 AM 8:40 PM
Full, 100% visible
Pressure 29.88 in
Visibility 10.0 miles
Clouds Clear
Heat Index 87 °F
Dew Point 66 °F
Humidity 55%
Rainfall 0.00 in
Snow Depth Not available.
UV 1 out of 12
Pollen 7.00 out of 12
Air Quality Not available.
Flu Activity Sporadic
METAR KTIK 022358Z AUTO 17012KT 10SM CLR 29/19 A2989 RMK AO2 SLP116 T02850191 10301 20283 56009

More Conditions Fewer Conditions

Pressure 29.88 in
Visibility 10.0 miles
Clouds Clear
Heat Index 87 °F
Dew Point 66 °F
Humidity 55%
Rainfall 0.00 in
Snow Depth Not available.
UV 1 out of 12
Pollen 7.00 out of 12
Air Quality Not available.
Flu Activity Sporadic
METAR KTIK 022358Z AUTO 17012KT 10SM CLR 29/19 A2989 RMK AO2 SLP116 T02850191 10301 20283 56009

More Conditions Fewer Conditions

10-Day Weather Forecast

×

Almanac

Astronomy

Jun. 02, 2015 Rise Set
Actual Time
Civil Twilight
Nautical Twilight
Astronomical Twilight
Moon
Length of Visible Light
Length of Day
Tomorrow will be .
, % of the Moon is Illuminated

Today's Extremes

State Highs State Lows

Community

WunderPhotos

Upload Photos

1,826,063 photos uploaded!

WunderBlogs® & News

Nearby

Air Quality

  Air Quality AQ Index Pollutant
Not available.

Snow Depth

Station Depth Elevation

Earthquake Activity

City Distance Mag. Time & Date
Minimum magnitude displayed is 2.5.

Coastal Water Temperatures

Place Temperature

Stations

Nearby Weather Stations

Station Location Temp. Windchill Dew Point Humidity Wind Precip. Elev Updated Type